Time;durP1;ratioP1;P1;durP2;ratioP2;P2;SDS_P1;SDS_P2;PMS_P1;PMS_P2;Temp;Humidity;BMP_temperature;BMP_pressure;BME280_temperature;BME280_humidity;BME280_pressure;Samples;Min_cycle;Max_cycle;Signal;HPM_P1;HPM_P2
2022/06/08 00:00:23;;;;;;;;;9.00;8.80;26.60;99.90;;;;;;4961890;28;8766;-64
2022/06/08 00:02:56;;;;;;;;;9.20;9.00;26.60;99.90;;;;;;4961947;28;8757;-68
2022/06/08 00:05:22;;;;;;;;;7.20;7.00;26.60;99.90;;;;;;4960005;28;8758;-68
2022/06/08 00:07:49;;;;;;;;;9.20;6.40;26.70;99.90;;;;;;4960634;28;8832;-62
2022/06/08 00:10:15;;;;;;;;;7.00;6.80;26.70;99.90;;;;;;4962340;28;8778;-72
2022/06/08 00:12:42;;;;;;;;;6.40;6.00;26.70;99.90;;;;;;4961058;28;8928;-62
2022/06/08 00:15:10;;;;;;;;;7.00;6.40;26.70;99.90;;;;;;4958314;28;8850;-71
2022/06/08 00:17:36;;;;;;;;;4.20;4.00;26.60;99.90;;;;;;4961068;28;8791;-72
2022/06/08 00:20:04;;;;;;;;;6.80;5.20;26.70;99.90;;;;;;4961264;28;8863;-66
2022/06/08 00:22:33;;;;;;;;;5.40;4.00;26.60;99.90;;;;;;4943873;28;8891;-72
2022/06/08 00:25:00;;;;;;;;;8.00;7.00;26.60;99.90;;;;;;4963730;28;8868;-61
2022/06/08 00:27:26;;;;;;;;;5.60;5.60;26.70;99.90;;;;;;4943927;28;8899;-64
2022/06/08 00:29:53;;;;;;;;;5.40;5.40;26.80;99.90;;;;;;4975841;28;8784;-72
2022/06/08 00:32:20;;;;;;;;;7.80;5.80;26.80;99.90;;;;;;4979009;28;8803;-67
2022/06/08 00:34:46;;;;;;;;;4.00;2.40;26.70;99.90;;;;;;4980112;28;8941;-74
2022/06/08 00:37:13;;;;;;;;;3.00;3.00;26.80;99.90;;;;;;4980153;28;8775;-54
2022/06/08 00:39:39;;;;;;;;;5.20;4.20;26.80;99.90;;;;;;4977640;28;8814;-57
2022/06/08 00:42:08;;;;;;;;;7.40;6.00;26.80;99.90;;;;;;4976893;28;9270;-53
2022/06/08 00:44:44;;;;;;;;;4.40;4.40;26.90;99.90;;;;;;4975080;28;8792;-52
2022/06/08 00:47:13;;;;;;;;;4.00;4.00;26.90;99.90;;;;;;4951122;28;8797;-54
2022/06/08 00:49:57;;;;;;;;;6.00;5.00;26.90;99.90;;;;;;4937493;29;8781;-73
2022/06/08 00:52:23;;;;;;;;;9.00;4.40;26.90;99.90;;;;;;4938324;28;9498;-49
2022/06/08 00:54:55;;;;;;;;;4.00;4.00;26.90;99.90;;;;;;4938558;29;8843;-60
2022/06/08 00:57:25;;;;;;;;;4.80;3.60;27.00;99.90;;;;;;4953037;28;8797;-69
2022/06/08 00:59:59;;;;;;;;;5.20;2.00;27.00;99.90;;;;;;4953018;29;8793;-69
2022/06/08 01:02:26;;;;;;;;;2.40;2.00;27.10;99.90;;;;;;4952506;28;8801;-76
2022/06/08 01:05:18;;;;;;;;;3.00;2.00;27.00;99.90;;;;;;4938619;29;9435;-75
2022/06/08 01:07:45;;;;;;;;;3.20;3.20;27.00;99.90;;;;;;4939039;28;8991;-71
2022/06/08 01:10:15;;;;;;;;;3.20;2.00;27.10;99.90;;;;;;4939624;29;8766;-52
2022/06/08 01:12:42;;;;;;;;;7.40;6.60;27.20;99.90;;;;;;4937237;28;8895;-68
2022/06/08 01:15:14;;;;;;;;;4.40;3.60;27.30;99.90;;;;;;4953381;28;8793;-74
2022/06/08 01:17:41;;;;;;;;;2.00;2.00;27.30;99.90;;;;;;4952657;28;8789;-75
2022/06/08 01:20:10;;;;;;;;;1.20;1.20;27.20;99.90;;;;;;4952437;29;8809;-74
2022/06/08 01:22:37;;;;;;;;;5.00;3.80;27.20;99.90;;;;;;4937947;28;9541;-64
2022/06/08 01:25:04;;;;;;;;;5.60;5.20;27.30;99.90;;;;;;4951792;28;8810;-64
2022/06/08 01:27:58;;;;;;;;;5.40;3.40;27.30;99.90;;;;;;4935419;28;8844;-69
2022/06/08 01:30:28;;;;;;;;;2.80;2.80;27.30;99.90;;;;;;4917447;29;8796;-57
2022/06/08 01:33:00;;;;;;;;;3.00;1.00;27.30;99.90;;;;;;4933110;28;8788;-53
2022/06/08 01:36:03;;;;;;;;;2.60;2.20;27.40;99.90;;;;;;4918654;29;8811;-62
2022/06/08 01:38:53;;;;;;;;;6.00;5.00;27.60;99.90;;;;;;4918419;29;8787;-69
2022/06/08 01:41:59;;;;;;;;;1.00;1.00;27.50;99.90;;;;;;4932983;29;8789;-69
2022/06/08 01:45:28;;;;;;;;;3.20;2.40;27.70;99.90;;;;;;4941573;29;8888;-64
2022/06/08 01:47:54;;;;;;;;;3.00;3.00;28.30;99.90;;;;;;4955693;28;8791;-73
2022/06/08 01:50:31;;;;;;;;;2.00;2.00;28.70;99.90;;;;;;4957920;28;8902;-63
2022/06/08 01:53:13;;;;;;;;;3.00;3.00;29.00;99.90;;;;;;4975770;28;8845;-71
2022/06/08 01:55:46;;;;;;;;;3.40;2.40;28.70;99.90;;;;;;4973245;28;8873;-68
2022/06/08 01:58:36;;;;;;;;;1.00;0.00;29.30;99.90;;;;;;4975775;28;8764;-73
2022/06/08 02:01:20;;;;;;;;;4.00;3.00;29.00;99.90;;;;;;4961997;28;8756;-68
2022/06/08 02:03:57;;;;;;;;;4.60;4.60;29.50;99.90;;;;;;4975210;28;8794;-71
2022/06/08 02:06:52;;;;;;;;;5.60;3.60;29.40;99.90;;;;;;4975257;28;8807;-73
2022/06/08 02:09:23;;;;;;;;;3.40;2.80;29.00;99.90;;;;;;4953033;28;8798;-68
2022/06/08 02:12:16;;;;;;;;;4.00;3.00;28.80;99.90;;;;;;4942426;28;8837;-70
2022/06/08 02:14:51;;;;;;;;;5.80;4.80;29.20;99.90;;;;;;4971782;28;8806;-69
2022/06/08 02:17:37;;;;;;;;;4.80;4.80;29.50;99.90;;;;;;4975620;28;9530;-69
2022/06/08 02:20:26;;;;;;;;;6.00;5.00;29.50;99.90;;;;;;4974599;28;8861;-72
2022/06/08 02:22:56;;;;;;;;;6.20;6.20;29.20;99.90;;;;;;4974835;28;9435;-71
2022/06/08 02:25:43;;;;;;;;;8.40;5.80;29.60;99.90;;;;;;4974239;28;8815;-72
2022/06/08 02:28:35;;;;;;;;;7.00;4.00;29.80;99.90;;;;;;4975101;28;8794;-65
2022/06/08 02:31:35;;;;;;;;;4.00;3.00;29.30;99.90;;;;;;4957510;28;8826;-74
2022/06/08 02:34:31;;;;;;;;;2.40;2.00;29.90;99.90;;;;;;4961554;28;8771;-69
2022/06/08 02:37:17;;;;;;;;;4.60;4.00;29.40;99.90;;;;;;4951061;28;8779;-72
2022/06/08 02:39:46;;;;;;;;;5.00;5.00;29.10;99.90;;;;;;4958909;28;8840;-70
2022/06/08 02:42:46;;;;;;;;;4.40;4.00;29.40;99.90;;;;;;4961221;28;8795;-70
2022/06/08 02:45:14;;;;;;;;;5.80;3.60;29.40;99.90;;;;;;4929905;28;8776;-71
2022/06/08 02:47:41;;;;;;;;;6.00;5.00;29.70;99.90;;;;;;4978627;28;8813;-69
2022/06/08 02:50:10;;;;;;;;;4.40;3.80;29.20;99.90;;;;;;4978956;28;8756;-70
2022/06/08 02:52:40;;;;;;;;;9.20;6.40;29.60;99.90;;;;;;4981607;28;8890;-66
2022/06/08 02:55:15;;;;;;;;;5.00;4.00;29.90;99.90;;;;;;4981698;28;8770;-71
2022/06/08 02:57:49;;;;;;;;;5.20;2.60;29.20;99.90;;;;;;4979451;28;8767;-69
2022/06/08 03:00:39;;;;;;;;;5.20;5.00;28.70;99.90;;;;;;4980379;28;8771;-71
2022/06/08 03:03:35;;;;;;;;;6.00;3.20;28.90;99.90;;;;;;4964055;28;9432;-71
2022/06/08 03:06:10;;;;;;;;;3.60;1.60;29.00;99.90;;;;;;4941130;28;8811;-72
2022/06/08 03:08:41;;;;;;;;;3.60;2.60;29.10;99.90;;;;;;4981120;28;8759;-72
2022/06/08 03:11:07;;;;;;;;;1.00;1.00;29.50;99.90;;;;;;4964140;28;8755;-67
2022/06/08 03:13:41;;;;;;;;;5.40;4.40;29.40;99.90;;;;;;4963915;28;8945;-73
2022/06/08 03:16:08;;;;;;;;;7.00;5.20;29.50;99.90;;;;;;4982045;28;8760;-73
2022/06/08 03:18:35;;;;;;;;;5.40;5.20;29.00;99.90;;;;;;4963139;28;8748;-63
2022/06/08 03:21:02;;;;;;;;;4.60;4.20;29.20;99.90;;;;;;4981342;28;8789;-64
2022/06/08 03:23:30;;;;;;;;;6.00;4.40;29.40;99.90;;;;;;4981258;28;8787;-72
2022/06/08 03:25:57;;;;;;;;;8.80;5.00;29.40;99.90;;;;;;4980148;28;8755;-73
2022/06/08 03:28:24;;;;;;;;;5.40;5.00;29.10;99.90;;;;;;4981423;28;8957;-60
2022/06/08 03:30:50;;;;;;;;;6.60;6.00;29.00;99.90;;;;;;4980682;28;8788;-69
2022/06/08 03:33:17;;;;;;;;;6.20;4.00;29.30;99.90;;;;;;4979196;28;8779;-67
2022/06/08 03:35:46;;;;;;;;;3.20;2.40;29.90;99.90;;;;;;4980339;28;8782;-69
2022/06/08 03:38:13;;;;;;;;;2.80;2.80;29.80;99.90;;;;;;4963305;28;8779;-68
2022/06/08 03:40:39;;;;;;;;;3.00;2.00;29.70;99.90;;;;;;4976362;28;8827;-70
2022/06/08 03:43:06;;;;;;;;;2.60;2.00;29.80;99.90;;;;;;4979809;28;8886;-61
2022/06/08 03:45:41;;;;;;;;;1.60;1.60;29.90;99.90;;;;;;4979203;28;8857;-69
2022/06/08 03:48:08;;;;;;;;;1.80;1.80;29.70;99.90;;;;;;4961604;28;8798;-70
2022/06/08 03:50:35;;;;;;;;;1.00;0.00;29.50;99.90;;;;;;4941397;28;8797;-70
2022/06/08 03:53:06;;;;;;;;;1.00;1.00;29.90;99.90;;;;;;4942259;28;8797;-64
2022/06/08 03:55:33;;;;;;;;;0.60;0.60;30.10;99.90;;;;;;4942354;28;8853;-71
2022/06/08 03:58:00;;;;;;;;;1.80;1.80;30.00;99.90;;;;;;4942662;29;8793;-71
2022/06/08 04:00:27;;;;;;;;;2.20;1.80;30.00;99.90;;;;;;4956492;28;8782;-68
2022/06/08 04:02:54;;;;;;;;;2.00;2.00;29.80;99.90;;;;;;4956838;28;8908;-69
2022/06/08 04:05:20;;;;;;;;;6.40;5.60;30.30;99.90;;;;;;4956535;28;8819;-70
2022/06/08 04:07:47;;;;;;;;;3.20;3.20;30.10;99.90;;;;;;4941614;28;8786;-70
2022/06/08 04:10:13;;;;;;;;;5.00;2.00;29.90;99.90;;;;;;4957041;28;8789;-70
2022/06/08 04:12:40;;;;;;;;;2.00;2.00;29.70;99.90;;;;;;4956165;28;8939;-68
2022/06/08 04:15:07;;;;;;;;;3.80;2.00;30.10;99.90;;;;;;4940914;28;8785;-68
2022/06/08 04:17:34;;;;;;;;;6.60;3.40;30.10;99.90;;;;;;4940308;29;9949;-70
2022/06/08 04:20:00;;;;;;;;;3.00;1.00;30.30;99.90;;;;;;4956327;28;8797;-68
2022/06/08 04:22:31;;;;;;;;;2.00;2.00;30.00;99.90;;;;;;4940608;28;8777;-70
2022/06/08 04:24:59;;;;;;;;;1.20;1.00;29.90;99.90;;;;;;4941468;28;8883;-68
2022/06/08 04:27:26;;;;;;;;;2.20;1.00;30.20;99.90;;;;;;4940095;29;9079;-70
2022/06/08 04:29:53;;;;;;;;;1.80;1.20;30.10;99.90;;;;;;4940527;28;8855;-70
2022/06/08 04:32:20;;;;;;;;;4.60;2.00;30.30;99.90;;;;;;4940706;28;8842;-66
2022/06/08 04:34:47;;;;;;;;;0.80;0.80;30.30;99.90;;;;;;4941174;28;8828;-69
2022/06/08 04:37:13;;;;;;;;;1.80;1.00;30.30;99.90;;;;;;4941373;28;8812;-71
2022/06/08 04:39:40;;;;;;;;;0.00;0.00;30.30;99.90;;;;;;4955801;28;8900;-71
2022/06/08 04:42:07;;;;;;;;;0.40;0.40;30.60;99.90;;;;;;4941077;28;9470;-69
2022/06/08 04:44:33;;;;;;;;;2.00;0.40;30.30;99.90;;;;;;4939525;28;9462;-70
2022/06/08 04:47:00;;;;;;;;;1.20;0.00;30.60;99.90;;;;;;4955163;28;9966;-67
2022/06/08 04:49:26;;;;;;;;;4.60;2.20;30.60;99.90;;;;;;4939846;28;8769;-71
2022/06/08 04:51:53;;;;;;;;;0.60;0.60;30.50;99.90;;;;;;4941293;29;8849;-71
2022/06/08 04:54:19;;;;;;;;;0.00;0.00;30.30;99.90;;;;;;4955645;28;8777;-63
2022/06/08 04:56:46;;;;;;;;;2.40;2.00;30.50;99.90;;;;;;4940804;28;8848;-71
2022/06/08 04:59:13;;;;;;;;;1.60;0.40;30.60;99.90;;;;;;4940903;28;8781;-70
2022/06/08 05:01:39;;;;;;;;;2.60;1.00;30.70;99.90;;;;;;4940062;28;8790;-65
2022/06/08 05:04:06;;;;;;;;;1.20;1.20;30.80;99.90;;;;;;4941284;29;8770;-71
2022/06/08 05:06:32;;;;;;;;;1.00;1.00;30.90;99.90;;;;;;4955095;28;8796;-63
2022/06/08 05:08:59;;;;;;;;;2.60;0.20;30.70;99.90;;;;;;4940347;28;8860;-72
2022/06/08 05:11:26;;;;;;;;;1.20;0.20;30.40;99.90;;;;;;4939801;28;8796;-68
2022/06/08 05:13:53;;;;;;;;;0.20;0.20;30.90;99.90;;;;;;4950837;29;8797;-68
2022/06/08 05:16:20;;;;;;;;;2.00;0.80;31.10;99.90;;;;;;4940642;29;8866;-72
2022/06/08 05:18:47;;;;;;;;;1.40;1.40;30.90;99.90;;;;;;4940006;28;9534;-70
2022/06/08 05:21:13;;;;;;;;;1.00;1.00;30.60;99.90;;;;;;4940042;28;8845;-67
2022/06/08 05:23:40;;;;;;;;;2.00;2.00;30.40;99.90;;;;;;4939250;28;8793;-69
2022/06/08 05:26:08;;;;;;;;;1.20;0.00;30.40;99.90;;;;;;4940185;28;8809;-57
2022/06/08 05:28:35;;;;;;;;;1.20;1.20;30.50;99.90;;;;;;4939452;28;9474;-71
2022/06/08 05:31:02;;;;;;;;;4.00;2.00;30.40;99.90;;;;;;4940612;29;8778;-72
2022/06/08 05:33:28;;;;;;;;;3.20;2.00;30.50;99.90;;;;;;4939803;28;9003;-65
2022/06/08 05:35:55;;;;;;;;;0.80;0.20;30.40;99.90;;;;;;4939694;28;8777;-67
2022/06/08 05:38:22;;;;;;;;;3.00;2.00;30.30;99.90;;;;;;4954335;28;8761;-71
2022/06/08 05:40:48;;;;;;;;;0.60;0.60;30.30;99.90;;;;;;4954399;28;8903;-67
2022/06/08 05:43:15;;;;;;;;;3.40;1.00;30.40;99.90;;;;;;4939997;29;8829;-70
2022/06/08 05:45:42;;;;;;;;;4.00;2.00;30.50;99.90;;;;;;4953271;28;8778;-69
2022/06/08 05:48:09;;;;;;;;;2.20;1.00;30.50;99.90;;;;;;4968019;28;8814;-69
2022/06/08 05:50:36;;;;;;;;;1.00;1.00;30.30;99.90;;;;;;4977941;28;8748;-69
2022/06/08 05:53:03;;;;;;;;;2.00;1.20;30.20;99.90;;;;;;4978129;28;9135;-69
2022/06/08 05:55:29;;;;;;;;;0.80;0.20;30.30;99.90;;;;;;4976259;28;8783;-67
2022/06/08 05:57:56;;;;;;;;;2.20;2.00;30.30;99.90;;;;;;4961556;28;8784;-70
2022/06/08 06:00:25;;;;;;;;;2.60;2.60;30.20;99.90;;;;;;4977998;28;8763;-69
2022/06/08 06:02:52;;;;;;;;;2.60;2.60;30.20;99.90;;;;;;4978418;28;9119;-66
2022/06/08 06:05:20;;;;;;;;;4.40;2.00;30.20;99.90;;;;;;4960263;28;8878;-67
2022/06/08 06:07:47;;;;;;;;;3.00;1.40;30.30;99.90;;;;;;4977550;28;8882;-65
2022/06/08 06:10:14;;;;;;;;;2.80;1.80;30.30;99.90;;;;;;4977464;28;8838;-69
2022/06/08 06:12:40;;;;;;;;;1.20;1.20;30.30;99.90;;;;;;4958458;28;9445;-65
2022/06/08 06:15:08;;;;;;;;;2.00;2.00;30.40;99.90;;;;;;4976920;28;8886;-67
2022/06/08 06:17:34;;;;;;;;;4.20;3.00;30.50;99.90;;;;;;4960123;28;8764;-67
2022/06/08 06:20:01;;;;;;;;;4.40;3.40;30.50;99.90;;;;;;4978336;28;10806;-67
2022/06/08 06:22:27;;;;;;;;;3.20;2.20;30.40;99.90;;;;;;4978018;28;8801;-68
2022/06/08 06:24:54;;;;;;;;;4.40;1.60;30.40;99.90;;;;;;4978052;28;8803;-68
2022/06/08 06:27:21;;;;;;;;;3.00;3.00;30.40;99.90;;;;;;4976256;28;8776;-67
2022/06/08 06:29:47;;;;;;;;;2.40;2.00;30.30;99.90;;;;;;4956780;28;8811;-70
2022/06/08 06:32:26;;;;;;;;;2.00;0.60;30.20;99.90;;;;;;4958256;29;8785;-68
2022/06/08 06:34:54;;;;;;;;;4.40;3.00;30.30;99.90;;;;;;4956148;28;8797;-68
2022/06/08 06:37:20;;;;;;;;;3.40;2.00;30.40;99.90;;;;;;4958710;28;8808;-69
2022/06/08 06:39:47;;;;;;;;;3.00;1.80;30.40;99.90;;;;;;4959335;28;8825;-67
2022/06/08 06:42:23;;;;;;;;;1.60;1.60;30.40;99.90;;;;;;4959863;28;8810;-69
2022/06/08 06:44:51;;;;;;;;;2.20;0.80;30.40;99.90;;;;;;4970970;28;8818;-67
2022/06/08 06:47:17;;;;;;;;;3.20;1.40;30.40;99.90;;;;;;4965395;28;8818;-66
2022/06/08 06:49:44;;;;;;;;;2.20;2.20;30.50;99.90;;;;;;4954117;28;8836;-68
2022/06/08 06:52:12;;;;;;;;;2.20;1.00;30.30;99.90;;;;;;4938788;29;8825;-71
2022/06/08 06:54:39;;;;;;;;;4.60;2.00;30.40;99.90;;;;;;4939411;28;8828;-66
2022/06/08 06:57:06;;;;;;;;;2.40;0.80;30.40;99.90;;;;;;4939938;28;9402;-69
2022/06/08 06:59:33;;;;;;;;;0.20;0.20;30.40;99.90;;;;;;4953897;28;8789;-72
2022/06/08 07:02:00;;;;;;;;;1.80;1.60;30.40;99.90;;;;;;4939953;28;8893;-69
2022/06/08 07:04:26;;;;;;;;;1.00;0.00;30.30;99.90;;;;;;4939731;28;8808;-65
2022/06/08 07:06:53;;;;;;;;;1.00;1.00;30.40;99.90;;;;;;4940757;29;8774;-72
2022/06/08 07:09:20;;;;;;;;;1.00;1.00;30.40;99.90;;;;;;4939647;28;8785;-69
2022/06/08 07:11:47;;;;;;;;;2.00;1.80;30.50;99.90;;;;;;4939756;28;8789;-71
2022/06/08 07:14:17;;;;;;;;;2.40;2.00;30.50;99.90;;;;;;4939350;28;8897;-70
2022/06/08 07:16:45;;;;;;;;;3.00;1.00;30.60;99.90;;;;;;4938060;28;8785;-62
2022/06/08 07:19:12;;;;;;;;;1.40;1.40;30.60;99.90;;;;;;4939598;29;8773;-68
2022/06/08 07:21:39;;;;;;;;;3.60;1.40;30.60;99.90;;;;;;4940316;28;8778;-69
2022/06/08 07:24:06;;;;;;;;;3.40;3.40;30.60;99.90;;;;;;4940189;28;8781;-66
2022/06/08 07:26:33;;;;;;;;;1.80;1.80;30.60;99.90;;;;;;4942226;28;8777;-60
2022/06/08 07:29:00;;;;;;;;;5.00;4.60;30.60;99.90;;;;;;4943718;28;8777;-70
2022/06/08 07:31:27;;;;;;;;;4.00;0.20;30.60;99.90;;;;;;4943546;28;8809;-70
2022/06/08 07:33:53;;;;;;;;;4.40;2.80;30.60;99.90;;;;;;4943902;29;8833;-64
2022/06/08 07:36:20;;;;;;;;;3.00;3.00;30.60;99.90;;;;;;4942705;28;8915;-69
2022/06/08 07:38:47;;;;;;;;;2.40;2.20;30.50;99.90;;;;;;4957636;28;8897;-69
2022/06/08 07:41:13;;;;;;;;;3.20;2.00;30.50;99.90;;;;;;4943056;28;8790;-67
2022/06/08 07:43:40;;;;;;;;;2.80;1.20;30.50;99.90;;;;;;4942251;28;8797;-70
2022/06/08 07:46:07;;;;;;;;;5.00;2.00;30.60;99.90;;;;;;4957844;29;8773;-69
2022/06/08 07:51:18;;;;;;;;;2.40;1.00;30.40;99.90;;;;;;4980760;28;8767;-61
2022/06/08 07:53:45;;;;;;;;;5.20;2.00;30.50;99.90;;;;;;4980844;28;8791;-69
2022/06/08 07:56:12;;;;;;;;;3.60;2.00;30.60;99.90;;;;;;4980884;28;9432;-71
2022/06/08 07:58:38;;;;;;;;;2.60;1.20;30.70;99.90;;;;;;4979062;28;8795;-69
2022/06/08 08:01:06;;;;;;;;;3.40;2.20;30.70;99.90;;;;;;4981175;28;8748;-58
2022/06/08 08:03:32;;;;;;;;;2.40;2.00;31.00;99.90;;;;;;4980246;28;8790;-70
2022/06/08 08:06:04;;;;;;;;;4.00;2.00;30.90;99.90;;;;;;4980187;28;8775;-69
2022/06/08 08:08:32;;;;;;;;;4.00;3.80;30.90;99.90;;;;;;4979922;28;8854;-69
2022/06/08 08:10:59;;;;;;;;;3.00;1.40;31.00;99.90;;;;;;4980489;28;8786;-59
2022/06/08 08:13:26;;;;;;;;;2.60;2.00;31.10;99.90;;;;;;4962100;28;8894;-64
2022/06/08 08:15:52;;;;;;;;;3.40;2.00;31.10;99.90;;;;;;4963451;28;8826;-56
2022/06/08 08:18:19;;;;;;;;;3.80;2.20;31.30;99.90;;;;;;4980222;28;8878;-68
2022/06/08 08:20:46;;;;;;;;;4.20;3.00;31.40;99.90;;;;;;4979622;28;8779;-70
2022/06/08 08:23:13;;;;;;;;;3.80;2.00;31.40;99.90;;;;;;4979935;28;8779;-63
2022/06/08 08:25:39;;;;;;;;;3.20;2.60;31.30;99.90;;;;;;4979014;28;9433;-51
2022/06/08 08:28:07;;;;;;;;;2.80;2.20;31.40;99.90;;;;;;4979433;28;8806;-67
2022/06/08 08:30:34;;;;;;;;;2.80;2.80;31.40;99.90;;;;;;4979730;28;9712;-65
2022/06/08 08:33:00;;;;;;;;;5.40;2.00;31.50;99.90;;;;;;4979949;28;8826;-66
2022/06/08 08:35:27;;;;;;;;;1.20;1.20;31.50;99.90;;;;;;4962658;28;8763;-67
2022/06/08 08:37:54;;;;;;;;;3.20;2.60;31.40;99.90;;;;;;4980261;28;8767;-63
2022/06/08 08:40:49;;;;;;;;;4.60;3.40;31.40;99.90;;;;;;4980313;28;8776;-67
2022/06/08 08:43:20;;;;;;;;;4.00;3.40;31.20;99.90;;;;;;4963518;28;8854;-63
2022/06/08 08:45:54;;;;;;;;;5.00;2.40;31.10;99.90;;;;;;4978692;28;8751;-67
2022/06/08 08:48:43;;;;;;;;;2.20;2.20;31.10;99.90;;;;;;4961167;28;8825;-63
2022/06/08 08:51:49;;;;;;;;;3.00;3.00;31.10;99.90;;;;;;4940165;28;8857;-67
2022/06/08 08:54:36;;;;;;;;;7.00;6.40;31.10;99.90;;;;;;4953570;28;8797;-66
2022/06/08 08:57:12;;;;;;;;;3.60;3.60;31.10;99.90;;;;;;4954646;28;8781;-67
2022/06/08 08:59:41;;;;;;;;;3.00;3.00;31.10;99.90;;;;;;4941359;28;8809;-66
2022/06/08 09:03:14;;;;;;;;;6.20;5.00;31.10;99.90;;;;;;4956187;28;8832;-68
2022/06/08 09:05:15;;;;;;;;;4.60;4.00;31.00;99.90;;;;;;4953436;28;8860;-70
2022/06/08 09:07:42;;;;;;;;;5.20;3.20;31.10;99.90;;;;;;4941493;29;8800;-60
2022/06/08 09:10:20;;;;;;;;;8.60;5.00;31.10;99.90;;;;;;4956460;29;8797;-68
2022/06/08 09:12:47;;;;;;;;;8.00;6.40;30.90;99.90;;;;;;4940996;29;8890;-70
2022/06/08 09:15:16;;;;;;;;;7.20;5.00;30.90;99.90;;;;;;4941187;28;8835;-65
2022/06/08 09:17:56;;;;;;;;;6.00;5.40;30.90;99.90;;;;;;4939856;29;9536;-67
2022/06/08 09:20:32;;;;;;;;;8.60;6.20;31.00;99.90;;;;;;4955449;28;9120;-65
2022/06/08 09:23:04;;;;;;;;;7.80;5.60;31.00;99.90;;;;;;4955551;28;8781;-69
2022/06/08 09:25:34;;;;;;;;;6.20;4.60;30.90;99.90;;;;;;4940850;28;8774;-69
2022/06/08 09:28:02;;;;;;;;;3.40;3.40;31.00;99.90;;;;;;4939967;29;8789;-65
2022/06/08 09:30:31;;;;;;;;;1.80;1.80;31.00;99.90;;;;;;4940335;28;8777;-55
2022/06/08 09:33:13;;;;;;;;;4.80;3.20;31.00;99.90;;;;;;4940762;28;8823;-69
2022/06/08 09:35:50;;;;;;;;;6.00;5.00;31.10;99.90;;;;;;4953213;28;8788;-70
2022/06/08 09:38:19;;;;;;;;;1.40;1.40;31.00;99.90;;;;;;4952929;28;8793;-63
2022/06/08 09:40:50;;;;;;;;;6.80;5.00;31.00;99.90;;;;;;4954981;28;8903;-70
2022/06/08 09:43:33;;;;;;;;;7.60;5.20;31.00;99.90;;;;;;4955440;29;8833;-62
2022/06/08 09:52:55;;;;;;;;;4.80;3.80;31.10;99.90;;;;;;4959008;28;9404;-69
2022/06/08 09:56:05;;;;;;;;;6.00;5.20;31.10;99.90;;;;;;4959658;28;8778;-58
2022/06/08 09:58:49;;;;;;;;;5.60;4.60;31.10;99.90;;;;;;4902948;29;8882;-68
2022/06/08 10:01:25;;;;;;;;;3.20;3.20;31.10;99.90;;;;;;4920360;29;8872;-55
2022/06/08 10:03:56;;;;;;;;;4.60;4.40;31.20;99.90;;;;;;4934364;29;8808;-51
2022/06/08 10:06:56;;;;;;;;;5.00;4.00;31.30;99.80;;;;;;4940064;29;8865;-69
2022/06/08 10:09:29;;;;;;;;;5.20;2.60;31.10;99.90;;;;;;4938895;28;8773;-66
2022/06/08 10:12:44;;;;;;;;;11.00;8.60;31.00;99.90;;;;;;4954549;28;8848;-66
2022/06/08 10:15:28;;;;;;;;;6.00;5.60;31.00;99.90;;;;;;4949856;28;8901;-68
2022/06/08 10:18:12;;;;;;;;;4.00;4.00;30.90;99.90;;;;;;4958130;28;8807;-67
2022/06/08 10:20:40;;;;;;;;;8.00;6.80;31.00;99.90;;;;;;4957972;28;8791;-66
2022/06/08 10:23:24;;;;;;;;;6.40;6.00;30.90;99.70;;;;;;4941932;28;8791;-65
2022/06/08 10:26:02;;;;;;;;;9.80;8.00;30.90;99.90;;;;;;4957991;28;8770;-67
2022/06/08 10:28:37;;;;;;;;;9.00;6.00;30.90;99.90;;;;;;4958601;28;8759;-68
2022/06/08 10:31:13;;;;;;;;;8.40;6.00;31.00;99.80;;;;;;4974585;28;8869;-67
2022/06/08 10:33:51;;;;;;;;;5.20;4.40;30.90;99.90;;;;;;4958870;28;8908;-68
2022/06/08 10:36:17;;;;;;;;;3.40;3.20;30.80;99.80;;;;;;4973905;28;8809;-67
2022/06/08 10:38:44;;;;;;;;;4.00;4.00;30.70;99.60;;;;;;4957881;29;8781;-67
2022/06/08 10:43:55;;;;;;;;;6.00;4.80;30.70;99.70;;;;;;4958723;28;8787;-68
2022/06/08 10:46:43;;;;;;;;;6.80;4.00;30.60;99.70;;;;;;4958462;28;8802;-67
2022/06/08 10:49:45;;;;;;;;;4.00;3.20;30.70;99.80;;;;;;4959576;28;8771;-66
2022/06/08 10:52:21;;;;;;;;;7.00;5.00;30.70;99.90;;;;;;4957727;28;8802;-70
2022/06/08 10:54:53;;;;;;;;;9.20;5.80;30.70;99.80;;;;;;4958947;28;9205;-70
2022/06/08 10:57:48;;;;;;;;;5.00;4.00;30.70;99.90;;;;;;4958834;28;9280;-62
2022/06/08 11:00:40;;;;;;;;;5.20;5.20;30.70;99.90;;;;;;4958909;28;8775;-66
2022/06/08 11:03:31;;;;;;;;;1.00;1.00;30.60;99.90;;;;;;4962943;28;8789;-70
2022/06/08 11:05:58;;;;;;;;;4.40;4.00;30.50;99.90;;;;;;4963026;28;8775;-68
2022/06/08 11:08:27;;;;;;;;;7.40;5.00;30.50;99.90;;;;;;4960991;28;9443;-71
2022/06/08 11:10:56;;;;;;;;;3.00;3.00;30.50;99.90;;;;;;4961684;28;8802;-71
2022/06/08 11:13:26;;;;;;;;;6.00;4.60;30.50;99.90;;;;;;4963214;28;8889;-64
2022/06/08 11:16:13;;;;;;;;;8.60;8.60;30.40;99.90;;;;;;4963320;28;8768;-71
2022/06/08 11:19:15;;;;;;;;;9.00;8.80;30.40;99.90;;;;;;4962534;28;8818;-70
2022/06/08 11:21:58;;;;;;;;;7.20;6.60;30.30;99.90;;;;;;4950002;28;8826;-70
2022/06/08 11:24:24;;;;;;;;;4.40;3.80;30.30;99.90;;;;;;4945990;28;8936;-71
2022/06/08 11:27:21;;;;;;;;;5.60;3.80;30.30;99.90;;;;;;4961408;28;8838;-61
2022/06/08 11:29:59;;;;;;;;;9.00;7.00;30.30;99.90;;;;;;4962418;28;8778;-67
2022/06/08 11:32:34;;;;;;;;;7.40;7.00;30.20;99.90;;;;;;4975597;28;8917;-71
2022/06/08 11:35:20;;;;;;;;;6.20;6.20;30.20;99.90;;;;;;4962075;28;8758;-70
2022/06/08 11:38:15;;;;;;;;;13.80;8.60;30.20;99.90;;;;;;4962042;28;8767;-71
2022/06/08 11:40:42;;;;;;;;;8.00;6.00;30.20;99.90;;;;;;4974325;28;8845;-62
2022/06/08 11:43:15;;;;;;;;;6.80;5.40;30.20;99.90;;;;;;4977083;28;8911;-71
2022/06/08 11:45:47;;;;;;;;;8.00;7.00;30.10;99.90;;;;;;4960588;28;9523;-70
2022/06/08 11:48:15;;;;;;;;;8.00;8.00;30.10;99.90;;;;;;4976552;28;8826;-66
2022/06/08 11:50:58;;;;;;;;;11.00;11.00;30.10;99.90;;;;;;4976411;28;9096;-68
2022/06/08 11:53:39;;;;;;;;;15.80;11.60;30.10;99.90;;;;;;4976264;28;8801;-71
2022/06/08 11:56:29;;;;;;;;;15.00;11.40;30.00;99.90;;;;;;4976585;28;8767;-71
2022/06/08 11:59:01;;;;;;;;;8.80;6.60;30.00;99.90;;;;;;4961619;28;8787;-52
2022/06/08 12:01:38;;;;;;;;;14.00;11.00;30.00;99.90;;;;;;4975817;28;9505;-66
2022/06/08 12:04:25;;;;;;;;;10.80;9.20;30.00;99.90;;;;;;4976486;28;8806;-71
2022/06/08 12:06:53;;;;;;;;;12.60;10.00;30.00;99.90;;;;;;4961787;28;8771;-70
2022/06/08 12:09:40;;;;;;;;;9.40;8.00;29.90;99.90;;;;;;4959801;28;8779;-60
2022/06/08 12:12:28;;;;;;;;;9.60;9.60;30.00;99.90;;;;;;4973556;28;8817;-63
2022/06/08 12:14:55;;;;;;;;;10.60;10.40;29.90;99.90;;;;;;4961175;28;8785;-70
2022/06/08 12:17:34;;;;;;;;;10.40;8.60;30.00;99.90;;;;;;4975601;28;8778;-65
2022/06/08 12:20:02;;;;;;;;;16.00;10.80;29.90;99.90;;;;;;4976903;28;8771;-72
2022/06/08 12:22:30;;;;;;;;;10.80;10.20;29.90;99.90;;;;;;4959971;28;8767;-65
2022/06/08 12:25:16;;;;;;;;;12.60;11.00;29.90;99.90;;;;;;4963620;28;8767;-65
2022/06/08 12:27:52;;;;;;;;;10.40;10.40;29.90;99.90;;;;;;4961632;28;8766;-70
2022/06/08 12:30:26;;;;;;;;;20.20;11.00;29.80;99.90;;;;;;4957172;28;8781;-64
2022/06/08 12:32:55;;;;;;;;;15.20;11.20;29.90;99.90;;;;;;4940740;29;8809;-70
2022/06/08 12:35:34;;;;;;;;;15.40;10.40;29.80;99.90;;;;;;4940193;29;8775;-66
2022/06/08 12:38:39;;;;;;;;;15.40;12.80;29.80;99.90;;;;;;4940842;29;8753;-70
2022/06/08 12:41:13;;;;;;;;;14.00;9.60;29.80;99.90;;;;;;4940733;29;8797;-69
2022/06/08 12:43:50;;;;;;;;;10.80;10.00;29.80;99.90;;;;;;4946613;28;8839;-68
2022/06/08 12:46:26;;;;;;;;;13.00;11.00;29.80;99.90;;;;;;4961543;28;8850;-71
2022/06/08 12:49:16;;;;;;;;;14.60;12.60;29.80;99.90;;;;;;4975646;28;8807;-66
2022/06/08 12:51:48;;;;;;;;;15.60;11.40;29.80;99.90;;;;;;4960602;28;8825;-71
2022/06/08 12:54:30;;;;;;;;;13.20;11.80;29.80;99.90;;;;;;4960627;28;9467;-70
2022/06/08 12:57:01;;;;;;;;;15.40;12.40;29.80;99.90;;;;;;4960700;28;8794;-67
2022/06/08 12:59:28;;;;;;;;;20.00;11.00;29.70;99.90;;;;;;4960205;28;9455;-63
2022/06/08 13:01:55;;;;;;;;;19.20;13.40;29.70;99.90;;;;;;4960499;28;8894;-71
2022/06/08 13:04:23;;;;;;;;;10.20;10.20;29.70;99.90;;;;;;4960944;28;8786;-71
2022/06/08 13:06:49;;;;;;;;;15.40;14.40;29.70;99.90;;;;;;4960981;28;8881;-55
2022/06/08 13:09:18;;;;;;;;;13.80;12.00;29.60;99.90;;;;;;4959494;28;8779;-55
2022/06/08 13:11:45;;;;;;;;;12.60;10.60;29.70;99.90;;;;;;4960620;28;8793;-71
2022/06/08 13:14:17;;;;;;;;;11.40;11.00;29.60;99.90;;;;;;4975575;28;8794;-71
2022/06/08 13:16:44;;;;;;;;;13.00;12.00;29.50;99.90;;;;;;4960619;28;8985;-63
2022/06/08 13:19:14;;;;;;;;;13.00;11.40;29.40;99.90;;;;;;4961033;28;8973;-67
2022/06/08 13:21:45;;;;;;;;;17.60;11.80;29.50;99.90;;;;;;4960238;28;8791;-70
2022/06/08 13:24:12;;;;;;;;;12.00;9.80;29.50;99.90;;;;;;4959493;28;8848;-68
2022/06/08 13:26:39;;;;;;;;;10.40;7.80;29.50;99.90;;;;;;4960199;28;8807;-62
2022/06/08 13:29:06;;;;;;;;;17.60;12.40;29.50;99.90;;;;;;4966222;28;8774;-69
2022/06/08 13:31:33;;;;;;;;;14.40;12.60;29.50;99.90;;;;;;4940274;28;8770;-66
2022/06/08 13:34:00;;;;;;;;;12.60;10.20;29.50;99.90;;;;;;4941592;29;8897;-69
2022/06/08 13:36:29;;;;;;;;;11.00;10.00;29.50;99.90;;;;;;4923223;28;8785;-67